createdAt,value
2023-05-06T00:00:24.645Z,9.40
2023-05-06T00:01:24.611Z,9.30
2023-05-06T00:02:24.622Z,9.40
2023-05-06T00:03:24.674Z,9.30
2023-05-06T00:04:24.872Z,9.30
2023-05-06T00:05:24.599Z,9.50
2023-05-06T00:06:24.584Z,9.10
2023-05-06T00:07:24.552Z,8.90
2023-05-06T00:08:24.547Z,8.50
2023-05-06T00:09:24.528Z,10.10
2023-05-06T00:10:24.530Z,9.00
2023-05-06T00:11:24.505Z,8.90
2023-05-06T00:12:24.515Z,9.70
2023-05-06T00:13:24.485Z,8.50
2023-05-06T00:14:24.494Z,8.30
2023-05-06T00:15:24.498Z,9.30
2023-05-06T00:16:24.473Z,8.50
2023-05-06T00:17:24.494Z,9.00
2023-05-06T00:18:24.437Z,8.80
2023-05-06T00:19:24.430Z,10.20
2023-05-06T00:20:24.434Z,9.70
2023-05-06T00:21:24.406Z,9.50
2023-05-06T00:22:24.391Z,9.00
2023-05-06T00:23:24.373Z,9.00
2023-05-06T00:24:24.371Z,9.00
2023-05-06T00:25:24.383Z,8.80
2023-05-06T00:26:24.359Z,8.90
2023-05-06T00:27:24.357Z,8.50
2023-05-06T00:28:24.325Z,9.30
2023-05-06T00:29:24.320Z,8.90
2023-05-06T00:30:24.326Z,8.40
2023-05-06T00:31:24.371Z,8.40
2023-05-06T00:32:24.321Z,9.10
2023-05-06T00:33:24.282Z,9.00
2023-05-06T00:34:24.280Z,9.90
2023-05-06T00:35:24.285Z,8.70
2023-05-06T00:36:24.242Z,8.30
2023-05-06T00:37:24.219Z,8.80
2023-05-06T00:38:24.210Z,8.70
2023-05-06T00:39:24.204Z,10.10
2023-05-06T00:40:24.233Z,8.40
2023-05-06T00:41:24.198Z,9.20
2023-05-06T00:42:24.174Z,8.90
2023-05-06T00:43:24.187Z,9.10
2023-05-06T00:44:24.162Z,8.90
2023-05-06T00:45:24.159Z,9.00
2023-05-06T00:46:24.167Z,9.10
2023-05-06T00:47:24.126Z,8.50
2023-05-06T00:48:24.105Z,8.70
2023-05-06T00:49:24.088Z,8.80
2023-05-06T00:50:24.119Z,8.80
2023-05-06T00:51:24.078Z,9.20
2023-05-06T00:52:24.066Z,8.40
2023-05-06T00:53:24.055Z,8.90
2023-05-06T00:54:24.045Z,8.90
2023-05-06T00:55:24.079Z,8.40
2023-05-06T00:56:24.018Z,9.80
2023-05-06T00:57:24.007Z,9.10
2023-05-06T00:58:24.002Z,8.60
2023-05-06T00:59:23.989Z,9.20
2023-05-06T01:00:24.003Z,9.10
2023-05-06T01:01:24.017Z,8.40
2023-05-06T01:02:28.488Z,8.50
2023-05-06T01:03:24.987Z,8.90
2023-05-06T01:04:24.164Z,9.30
2023-05-06T01:05:24.082Z,10.40
2023-05-06T01:06:23.908Z,8.70
2023-05-06T01:07:23.905Z,9.30
2023-05-06T01:08:23.901Z,9.20
2023-05-06T01:09:23.885Z,9.80
2023-05-06T01:10:23.893Z,9.30
2023-05-06T01:11:23.886Z,9.40
2023-05-06T01:12:23.854Z,8.60
2023-05-06T01:13:23.836Z,9.00
2023-05-06T01:14:23.826Z,9.80
2023-05-06T01:15:23.831Z,9.10
2023-05-06T01:16:23.868Z,9.70
2023-05-06T01:17:23.859Z,9.20
2023-05-06T01:18:23.780Z,9.10
2023-05-06T01:19:23.775Z,9.00
2023-05-06T01:20:23.787Z,8.60
2023-05-06T01:21:23.772Z,9.40
2023-05-06T01:22:23.748Z,10.10
2023-05-06T01:23:23.727Z,9.50
2023-05-06T01:24:23.721Z,9.70
2023-05-06T01:25:23.719Z,9.90
2023-05-06T01:26:23.717Z,9.70
2023-05-06T01:27:23.687Z,10.10
2023-05-06T01:28:23.670Z,10.20
2023-05-06T01:29:23.675Z,10.40
2023-05-06T01:30:23.685Z,9.40
2023-05-06T01:31:23.746Z,9.80
2023-05-06T01:32:23.762Z,11.00
2023-05-06T01:33:23.624Z,9.80
2023-05-06T01:34:23.616Z,10.10
2023-05-06T01:35:23.600Z,10.10
2023-05-06T01:36:23.629Z,10.60
2023-05-06T01:37:23.582Z,10.20
2023-05-06T01:38:23.566Z,10.30
2023-05-06T01:39:23.566Z,10.30
2023-05-06T01:40:23.556Z,10.50
2023-05-06T01:41:23.596Z,10.20
2023-05-06T01:42:23.538Z,11.20
2023-05-06T01:43:23.518Z,11.50
2023-05-06T01:44:23.512Z,11.50
2023-05-06T01:45:23.487Z,11.80
2023-05-06T01:46:23.532Z,11.50
2023-05-06T01:47:23.482Z,11.30
2023-05-06T01:48:23.460Z,12.00
2023-05-06T01:49:23.451Z,11.10
2023-05-06T01:50:23.473Z,12.20
2023-05-06T01:51:23.459Z,12.50
2023-05-06T01:52:23.413Z,12.50
2023-05-06T01:53:23.406Z,11.70
2023-05-06T01:54:23.388Z,12.20
2023-05-06T01:55:23.384Z,11.60
2023-05-06T01:56:23.407Z,11.30
2023-05-06T01:57:23.379Z,11.60
2023-05-06T01:58:23.351Z,11.30
2023-05-06T01:59:23.365Z,11.70
2023-05-06T02:00:23.342Z,11.80
2023-05-06T02:01:23.372Z,12.60
2023-05-06T02:02:23.335Z,10.80
2023-05-06T02:03:23.345Z,11.10
2023-05-06T02:04:23.286Z,11.30
2023-05-06T02:05:23.275Z,11.50
2023-05-06T02:06:23.298Z,10.60
2023-05-06T02:07:23.259Z,11.20
2023-05-06T02:08:23.247Z,11.60
2023-05-06T02:09:23.235Z,10.50
2023-05-06T02:10:23.287Z,10.40
2023-05-06T02:11:23.263Z,10.70
2023-05-06T02:12:23.225Z,11.20
2023-05-06T02:13:23.201Z,10.90
2023-05-06T02:14:23.179Z,11.40
2023-05-06T02:15:23.170Z,10.90
2023-05-06T02:16:23.177Z,11.80
2023-05-06T02:17:23.237Z,12.20
2023-05-06T02:18:23.155Z,11.90
2023-05-06T02:19:23.122Z,11.00
2023-05-06T02:20:23.118Z,12.10
2023-05-06T02:21:23.102Z,12.30
2023-05-06T02:22:23.137Z,12.90
2023-05-06T02:23:23.083Z,11.50
2023-05-06T02:24:23.065Z,13.00
2023-05-06T02:25:23.064Z,12.50
2023-05-06T02:26:23.059Z,11.70
2023-05-06T02:27:23.122Z,12.00
2023-05-06T02:28:23.033Z,12.50
2023-05-06T02:29:23.035Z,13.20
2023-05-06T02:30:23.008Z,13.10
2023-05-06T02:31:23.071Z,13.90
2023-05-06T02:32:23.068Z,12.90
2023-05-06T02:33:22.969Z,13.30
2023-05-06T02:34:22.963Z,13.90
2023-05-06T02:35:22.952Z,13.70
2023-05-06T02:36:22.935Z,13.40
2023-05-06T02:37:22.958Z,13.50
2023-05-06T02:38:22.930Z,14.30
2023-05-06T02:39:22.903Z,14.30
2023-05-06T02:40:22.902Z,13.10
2023-05-06T02:41:22.896Z,12.70
2023-05-06T02:42:22.957Z,14.00
2023-05-06T02:43:22.907Z,13.60
2023-05-06T02:44:22.851Z,13.30
2023-05-06T02:45:22.843Z,13.20
2023-05-06T02:46:22.896Z,13.90
2023-05-06T02:47:22.862Z,13.50
2023-05-06T02:48:22.887Z,12.70
2023-05-06T02:49:22.795Z,14.40
2023-05-06T02:50:22.794Z,14.40
2023-05-06T02:51:22.777Z,12.70
2023-05-06T02:52:22.791Z,13.00
2023-05-06T02:53:22.771Z,12.90
2023-05-06T02:54:22.758Z,13.70
2023-05-06T02:55:22.746Z,14.50
2023-05-06T02:56:22.721Z,13.20
2023-05-06T02:57:22.740Z,12.60
2023-05-06T02:58:22.720Z,13.40
2023-05-06T02:59:22.693Z,14.30
2023-05-06T03:00:22.688Z,14.90
2023-05-06T03:01:22.718Z,14.50
2023-05-06T03:02:22.700Z,15.40
2023-05-06T03:03:22.674Z,15.80
2023-05-06T03:04:22.683Z,15.80
2023-05-06T03:05:22.629Z,15.30
2023-05-06T03:06:22.610Z,16.00
2023-05-06T03:07:22.616Z,15.10
2023-05-06T03:08:22.587Z,13.80
2023-05-06T03:09:22.614Z,14.40
2023-05-06T03:10:22.619Z,14.70
2023-05-06T03:11:22.568Z,13.80
2023-05-06T03:12:22.559Z,15.60
2023-05-06T03:13:22.654Z,13.90
2023-05-06T03:14:22.522Z,14.40
2023-05-06T03:15:22.536Z,13.80
2023-05-06T03:16:22.520Z,14.60
2023-05-06T03:17:22.486Z,15.70
2023-05-06T03:18:22.523Z,14.70
2023-05-06T03:19:22.460Z,14.20
2023-05-06T03:20:22.465Z,14.90
2023-05-06T03:21:22.553Z,15.00
2023-05-06T03:22:22.463Z,14.50
2023-05-06T03:23:22.458Z,15.00
2023-05-06T03:24:22.413Z,14.70
2023-05-06T03:25:22.409Z,15.10
2023-05-06T03:26:22.402Z,14.50
2023-05-06T03:27:22.394Z,14.60
2023-05-06T03:28:22.408Z,15.30
2023-05-06T03:29:22.368Z,16.30
2023-05-06T03:30:22.376Z,15.80
2023-05-06T03:31:22.422Z,15.80
2023-05-06T03:32:22.339Z,17.40
2023-05-06T03:33:22.341Z,17.10
2023-05-06T03:34:22.315Z,17.10
2023-05-06T03:35:22.293Z,18.70
2023-05-06T03:36:22.289Z,19.30
2023-05-06T03:37:22.311Z,18.60
2023-05-06T03:38:22.264Z,16.80
2023-05-06T03:39:22.254Z,17.80
2023-05-06T03:40:22.255Z,18.10
2023-05-06T03:41:22.230Z,16.50
2023-05-06T03:42:22.235Z,18.00
2023-05-06T03:43:22.250Z,17.10
2023-05-06T03:44:22.194Z,17.90
2023-05-06T03:45:22.181Z,17.80
2023-05-06T03:46:22.254Z,17.60
2023-05-06T03:47:22.185Z,18.50
2023-05-06T03:48:22.153Z,17.80
2023-05-06T03:49:22.144Z,18.90
2023-05-06T03:50:22.128Z,17.50
2023-05-06T03:51:22.119Z,17.40
2023-05-06T03:52:22.105Z,17.80
2023-05-06T03:53:22.123Z,17.60
2023-05-06T03:54:22.083Z,18.00
2023-05-06T03:55:22.081Z,17.20
2023-05-06T03:56:22.076Z,17.90
2023-05-06T03:57:22.055Z,18.20
2023-05-06T03:58:22.066Z,17.60
2023-05-06T03:59:22.032Z,18.30
2023-05-06T04:00:22.035Z,18.00
2023-05-06T04:01:22.012Z,18.10
2023-05-06T04:02:22.089Z,17.90
2023-05-06T04:03:22.080Z,17.30
2023-05-06T04:04:21.972Z,17.30
2023-05-06T04:05:21.962Z,18.30
2023-05-06T04:06:21.968Z,18.70
2023-05-06T04:07:21.969Z,18.90
2023-05-06T04:08:21.937Z,18.00
2023-05-06T04:09:21.929Z,18.40
2023-05-06T04:10:21.929Z,17.40
2023-05-06T04:11:21.896Z,17.60
2023-05-06T04:12:21.935Z,18.00
2023-05-06T04:13:21.905Z,16.70
2023-05-06T04:14:21.881Z,19.00
2023-05-06T04:15:21.864Z,15.80
2023-05-06T04:16:21.889Z,18.00
2023-05-06T04:17:21.855Z,16.90
2023-05-06T04:18:21.819Z,17.00
2023-05-06T04:19:21.842Z,17.60
2023-05-06T04:20:21.802Z,17.50
2023-05-06T04:21:21.791Z,17.80
2023-05-06T04:22:21.802Z,16.60
2023-05-06T04:23:21.784Z,15.60
2023-05-06T04:24:21.754Z,15.30
2023-05-06T04:25:21.740Z,15.30
2023-05-06T04:26:21.747Z,15.30
2023-05-06T04:27:21.765Z,14.90
2023-05-06T04:28:21.713Z,15.10
2023-05-06T04:29:21.709Z,14.70
2023-05-06T04:30:21.704Z,14.20
2023-05-06T04:31:21.700Z,14.20
2023-05-06T04:32:21.720Z,14.30
2023-05-06T04:33:21.666Z,14.50
2023-05-06T04:34:21.660Z,13.30
2023-05-06T04:35:21.640Z,13.80
2023-05-06T04:36:21.627Z,13.30
2023-05-06T04:37:21.694Z,13.00
2023-05-06T04:38:21.658Z,12.80
2023-05-06T04:39:21.601Z,12.20
2023-05-06T04:40:21.593Z,12.10
2023-05-06T04:41:21.590Z,12.10
2023-05-06T04:42:21.615Z,13.60
2023-05-06T04:43:21.566Z,12.80
2023-05-06T04:44:21.543Z,13.00
2023-05-06T04:45:21.539Z,13.30
2023-05-06T04:46:21.657Z,13.10
2023-05-06T04:47:21.602Z,12.40
2023-05-06T04:48:21.556Z,12.30
2023-05-06T04:49:21.529Z,13.20
2023-05-06T04:50:21.489Z,13.40
2023-05-06T04:51:21.478Z,13.50
2023-05-06T04:52:21.501Z,13.60
2023-05-06T04:53:21.480Z,13.70
2023-05-06T04:54:21.438Z,14.10
2023-05-06T04:55:21.467Z,14.30
2023-05-06T04:56:21.450Z,13.10
2023-05-06T04:57:21.481Z,13.10
2023-05-06T04:58:21.408Z,14.00
2023-05-06T04:59:21.442Z,13.70
2023-05-06T05:00:21.450Z,14.80
2023-05-06T05:01:21.392Z,13.80
2023-05-06T05:02:21.460Z,14.40
2023-05-06T05:03:21.521Z,14.80
2023-05-06T05:04:21.372Z,14.20
2023-05-06T05:05:21.321Z,13.70
2023-05-06T05:06:21.323Z,14.10
2023-05-06T05:07:21.336Z,14.90
2023-05-06T05:08:21.309Z,14.50
2023-05-06T05:09:21.305Z,14.40
2023-05-06T05:10:21.282Z,15.10
2023-05-06T05:11:21.257Z,14.50
2023-05-06T05:12:21.265Z,15.10
2023-05-06T05:13:21.314Z,14.70
2023-05-06T05:14:21.229Z,14.90
2023-05-06T05:15:21.273Z,14.40
2023-05-06T05:16:21.221Z,15.00
2023-05-06T05:17:21.189Z,14.50
2023-05-06T05:18:21.189Z,14.60
2023-05-06T05:19:21.178Z,13.00
2023-05-06T05:20:21.154Z,13.60
2023-05-06T05:21:21.157Z,12.70
2023-05-06T05:22:21.143Z,13.30
2023-05-06T05:23:21.144Z,13.10
2023-05-06T05:24:21.116Z,13.10
2023-05-06T05:25:21.113Z,12.80
2023-05-06T05:26:21.101Z,13.50
2023-05-06T05:27:21.078Z,13.40
2023-05-06T05:28:21.118Z,13.50
2023-05-06T05:29:21.087Z,12.80
2023-05-06T05:30:21.077Z,12.70
2023-05-06T05:31:21.130Z,13.30
2023-05-06T05:32:21.067Z,12.90
2023-05-06T05:33:21.120Z,13.60
2023-05-06T05:34:21.034Z,13.30
2023-05-06T05:35:20.988Z,13.50
2023-05-06T05:36:20.992Z,12.80
2023-05-06T05:37:20.977Z,12.80
2023-05-06T05:38:20.955Z,11.80
2023-05-06T05:39:20.983Z,12.20
2023-05-06T05:40:20.946Z,13.10
2023-05-06T05:41:20.925Z,12.40
2023-05-06T05:42:20.915Z,12.70
2023-05-06T05:43:20.920Z,12.50
2023-05-06T05:44:20.912Z,12.40
2023-05-06T05:45:20.893Z,13.20
2023-05-06T05:46:20.934Z,11.70
2023-05-06T05:47:20.948Z,11.70
2023-05-06T05:48:20.862Z,12.60
2023-05-06T05:49:20.884Z,13.00
2023-05-06T05:50:20.834Z,12.50
2023-05-06T05:51:20.861Z,11.80
2023-05-06T05:52:20.810Z,12.30
2023-05-06T05:53:20.798Z,11.90
2023-05-06T05:54:20.824Z,11.90
2023-05-06T05:55:20.779Z,11.50
2023-05-06T05:56:20.776Z,10.90
2023-05-06T05:57:20.773Z,10.70
2023-05-06T05:58:20.746Z,11.20
2023-05-06T05:59:20.766Z,10.20
2023-05-06T06:00:20.771Z,10.70
2023-05-06T06:01:20.717Z,10.10
2023-05-06T06:02:20.817Z,9.70
2023-05-06T06:03:20.801Z,10.00
2023-05-06T06:04:20.747Z,9.90
2023-05-06T06:05:20.703Z,10.40
2023-05-06T06:06:20.653Z,9.70
2023-05-06T06:07:20.681Z,9.70
2023-05-06T06:08:20.644Z,10.40
2023-05-06T06:09:20.624Z,9.30
2023-05-06T06:10:20.673Z,8.70
2023-05-06T06:11:20.607Z,8.70
2023-05-06T06:12:20.592Z,8.60
2023-05-06T06:13:20.760Z,8.50
2023-05-06T06:14:20.583Z,8.20
2023-05-06T06:15:20.580Z,8.20
2023-05-06T06:16:20.585Z,8.80
2023-05-06T06:17:20.543Z,8.00
2023-05-06T06:18:20.531Z,8.40
2023-05-06T06:19:21.127Z,8.90
2023-05-06T06:20:20.525Z,8.40
2023-05-06T06:21:20.496Z,8.10
2023-05-06T06:22:20.481Z,7.40
2023-05-06T06:23:20.493Z,7.80
2023-05-06T06:24:20.452Z,8.10
2023-05-06T06:25:20.466Z,8.20
2023-05-06T06:26:20.446Z,8.10
2023-05-06T06:27:20.430Z,8.00
2023-05-06T06:28:20.413Z,7.20
2023-05-06T06:29:20.428Z,7.50
2023-05-06T06:30:20.413Z,6.40
2023-05-06T06:31:20.449Z,7.60
2023-05-06T06:32:20.413Z,7.40
2023-05-06T06:33:20.358Z,7.10
2023-05-06T06:34:20.353Z,7.40
2023-05-06T06:35:20.361Z,7.60
2023-05-06T06:36:20.329Z,6.60
2023-05-06T06:37:20.327Z,7.80
2023-05-06T06:38:20.313Z,7.20
2023-05-06T06:39:20.298Z,7.00
2023-05-06T06:40:20.305Z,7.20
2023-05-06T06:41:20.288Z,7.20
2023-05-06T06:42:20.265Z,7.20
2023-05-06T06:43:20.249Z,7.00
2023-05-06T06:44:20.264Z,6.80
2023-05-06T06:45:20.247Z,6.80
2023-05-06T06:46:20.275Z,7.00
2023-05-06T06:47:20.227Z,6.70
2023-05-06T06:48:20.206Z,6.90
2023-05-06T06:49:20.186Z,7.30
2023-05-06T06:50:20.224Z,7.30
2023-05-06T06:51:20.168Z,6.20
2023-05-06T06:52:20.161Z,6.90
2023-05-06T06:53:20.169Z,6.00
2023-05-06T06:54:20.137Z,6.80
2023-05-06T06:55:20.151Z,6.20
2023-05-06T06:56:20.114Z,5.80
2023-05-06T06:57:20.100Z,6.30
2023-05-06T06:58:20.094Z,6.60
2023-05-06T06:59:20.152Z,6.10
2023-05-06T07:00:20.090Z,5.80
2023-05-06T07:01:20.073Z,5.80
2023-05-06T07:02:20.111Z,5.60
2023-05-06T07:03:20.037Z,6.00
2023-05-06T07:04:20.062Z,6.10
2023-05-06T07:05:20.062Z,6.00
2023-05-06T07:06:20.033Z,5.10
2023-05-06T07:07:19.988Z,5.10
2023-05-06T07:08:19.980Z,5.10
2023-05-06T07:09:20.006Z,4.60
2023-05-06T07:10:19.955Z,4.60
2023-05-06T07:11:19.963Z,4.60
2023-05-06T07:12:19.955Z,4.70
2023-05-06T07:13:19.940Z,4.70
2023-05-06T07:14:19.917Z,5.00
2023-05-06T07:15:19.920Z,4.80
2023-05-06T07:16:19.926Z,5.30
2023-05-06T07:17:19.966Z,4.80
2023-05-06T07:18:19.895Z,4.20
2023-05-06T07:19:19.901Z,4.30
2023-05-06T07:20:19.851Z,4.10
2023-05-06T07:21:19.858Z,3.60
2023-05-06T07:22:19.831Z,3.40
2023-05-06T07:23:19.821Z,3.30
2023-05-06T07:24:19.809Z,3.40
2023-05-06T07:25:19.789Z,2.80
2023-05-06T07:26:19.875Z,2.90
2023-05-06T07:27:19.782Z,3.00
2023-05-06T07:28:19.833Z,2.80
2023-05-06T07:29:19.758Z,2.80
2023-05-06T07:30:22.356Z,2.70
2023-05-06T07:31:19.794Z,2.70
2023-05-06T07:32:19.772Z,2.80
2023-05-06T07:33:19.796Z,2.40
2023-05-06T07:34:19.709Z,2.60
2023-05-06T07:35:19.698Z,2.30
2023-05-06T07:36:19.710Z,3.20
2023-05-06T07:37:19.676Z,2.30
2023-05-06T07:38:19.651Z,2.10
2023-05-06T07:39:19.667Z,2.00
2023-05-06T07:40:19.645Z,2.50
2023-05-06T07:41:19.645Z,1.70
2023-05-06T07:42:19.636Z,3.30
2023-05-06T07:43:19.619Z,2.60
2023-05-06T07:44:19.586Z,1.80
2023-05-06T07:45:19.681Z,1.50
2023-05-06T07:46:19.675Z,1.70
2023-05-06T07:47:19.587Z,1.90
2023-05-06T07:48:20.361Z,1.70
2023-05-06T07:49:19.548Z,2.50
2023-05-06T07:50:19.550Z,2.20
2023-05-06T07:51:19.560Z,2.60
2023-05-06T07:52:19.515Z,3.00
2023-05-06T07:53:19.490Z,2.30
2023-05-06T07:54:19.486Z,1.30
2023-05-06T07:55:19.486Z,1.60
2023-05-06T07:56:19.480Z,1.70
2023-05-06T07:57:19.451Z,1.50
2023-05-06T07:58:19.474Z,1.50
2023-05-06T07:59:19.428Z,1.70
2023-05-06T08:00:19.419Z,1.50
2023-05-06T08:01:19.430Z,1.50
2023-05-06T08:02:19.438Z,1.70
2023-05-06T08:03:19.546Z,2.10
2023-05-06T08:04:19.391Z,1.80
2023-05-06T08:05:19.385Z,2.10
2023-05-06T08:06:19.372Z,2.30
2023-05-06T08:07:19.355Z,2.90
2023-05-06T08:08:19.351Z,1.80
2023-05-06T08:09:22.929Z,2.00
2023-05-06T08:10:19.321Z,2.60
2023-05-06T08:11:19.580Z,2.20
2023-05-06T08:12:19.297Z,3.70
2023-05-06T08:13:19.309Z,1.70
2023-05-06T08:14:19.282Z,1.90
2023-05-06T08:15:19.257Z,2.10
2023-05-06T08:16:19.307Z,3.00
2023-05-06T08:17:19.321Z,1.50
2023-05-06T08:18:22.999Z,1.50
2023-05-06T08:19:19.220Z,1.60
2023-05-06T08:20:19.223Z,1.30
2023-05-06T08:21:19.222Z,1.70
2023-05-06T08:22:19.190Z,1.20
2023-05-06T08:23:19.201Z,1.30
2023-05-06T08:24:19.187Z,1.50
2023-05-06T08:25:19.187Z,1.50
2023-05-06T08:26:19.243Z,1.60
2023-05-06T08:27:19.131Z,1.40
2023-05-06T08:28:19.120Z,1.60
2023-05-06T08:29:19.147Z,2.50
2023-05-06T08:30:19.088Z,1.70
2023-05-06T08:31:19.151Z,2.70
2023-05-06T08:32:19.091Z,1.10
2023-05-06T08:33:19.135Z,1.70
2023-05-06T08:34:19.049Z,1.50
2023-05-06T08:35:19.054Z,1.10
2023-05-06T08:36:19.059Z,1.40
2023-05-06T08:37:19.022Z,1.80
2023-05-06T08:38:19.015Z,1.10
2023-05-06T08:39:18.998Z,4.70
2023-05-06T08:40:19.020Z,8.50
2023-05-06T08:41:19.022Z,12.60
2023-05-06T08:42:18.988Z,12.30
2023-05-06T08:43:19.109Z,14.00
2023-05-06T08:44:18.958Z,2.20
2023-05-06T08:45:18.971Z,2.10
2023-05-06T08:46:19.173Z,1.50
2023-05-06T08:47:18.938Z,0.90
2023-05-06T08:48:18.951Z,1.50
2023-05-06T08:49:18.893Z,2.30
2023-05-06T08:50:18.949Z,1.50
2023-05-06T08:51:18.902Z,1.50
2023-05-06T08:52:18.881Z,1.20
2023-05-06T08:53:18.891Z,2.00
2023-05-06T08:54:18.834Z,1.20
2023-05-06T08:55:18.928Z,1.50
2023-05-06T08:56:18.872Z,1.10
2023-05-06T08:57:18.816Z,1.00
2023-05-06T08:58:18.832Z,1.60
2023-05-06T08:59:18.816Z,1.00
2023-05-06T09:00:18.786Z,1.30
2023-05-06T09:01:18.814Z,1.00
2023-05-06T09:02:18.849Z,1.80
2023-05-06T09:03:19.043Z,1.00
2023-05-06T09:04:18.773Z,1.30
2023-05-06T09:05:18.769Z,1.00
2023-05-06T09:06:18.727Z,1.00
2023-05-06T09:07:18.756Z,1.10
2023-05-06T09:08:18.687Z,1.40
2023-05-06T09:09:18.696Z,1.40
2023-05-06T09:10:18.723Z,1.20
2023-05-06T09:11:18.682Z,1.30
2023-05-06T09:12:18.680Z,1.60
2023-05-06T09:13:18.775Z,1.50
2023-05-06T09:14:18.660Z,1.10
2023-05-06T09:15:18.608Z,1.10
2023-05-06T09:16:18.667Z,1.60
2023-05-06T09:17:18.601Z,1.30
2023-05-06T09:18:18.593Z,1.20
2023-05-06T09:19:18.567Z,0.90
2023-05-06T09:20:18.877Z,1.30
2023-05-06T09:21:18.602Z,1.30
2023-05-06T09:22:18.563Z,1.10
2023-05-06T09:23:18.545Z,1.00
2023-05-06T09:24:18.616Z,2.00
2023-05-06T09:25:18.502Z,2.00
2023-05-06T09:26:18.528Z,1.10
2023-05-06T09:27:18.634Z,1.40
2023-05-06T09:28:18.498Z,1.30
2023-05-06T09:29:18.502Z,1.70
2023-05-06T09:30:18.724Z,5.30
2023-05-06T09:31:18.584Z,11.20
2023-05-06T09:32:18.461Z,13.10
2023-05-06T09:33:18.443Z,9.30
2023-05-06T09:34:18.422Z,9.00
2023-05-06T09:35:18.425Z,7.10
2023-05-06T09:36:18.427Z,6.80
2023-05-06T09:37:18.470Z,5.20
2023-05-06T09:38:18.396Z,3.10
2023-05-06T09:39:18.354Z,3.80
2023-05-06T09:40:18.456Z,5.40
2023-05-06T09:41:18.341Z,3.50
2023-05-06T09:42:18.361Z,3.70
2023-05-06T09:43:18.324Z,3.30
2023-05-06T09:44:18.310Z,1.90
2023-05-06T09:45:18.323Z,2.90
2023-05-06T09:46:18.307Z,2.10
2023-05-06T09:47:18.301Z,2.20
2023-05-06T09:48:18.270Z,2.30
2023-05-06T09:49:18.378Z,2.30
2023-05-06T09:50:18.358Z,2.30
2023-05-06T09:51:18.263Z,2.20
2023-05-06T09:52:18.248Z,2.90
2023-05-06T09:53:18.234Z,2.00
2023-05-06T09:54:18.200Z,2.30
2023-05-06T09:55:18.336Z,1.90
2023-05-06T09:56:18.194Z,2.50
2023-05-06T09:57:18.221Z,1.60
2023-05-06T09:58:18.155Z,2.00
2023-05-06T09:59:18.181Z,1.80
2023-05-06T10:00:18.386Z,2.50
2023-05-06T10:01:32.584Z,1.80
2023-05-06T10:02:19.202Z,2.00
2023-05-06T10:03:18.234Z,1.90
2023-05-06T10:04:18.368Z,1.90
2023-05-06T10:05:18.643Z,2.20
2023-05-06T10:06:18.074Z,2.30
2023-05-06T10:07:18.156Z,2.50
2023-05-06T10:08:18.224Z,3.00
2023-05-06T10:09:18.039Z,3.20
2023-05-06T10:10:18.040Z,3.40
2023-05-06T10:11:18.014Z,2.90
2023-05-06T10:12:18.032Z,3.20
2023-05-06T10:13:18.125Z,3.00
2023-05-06T10:14:18.013Z,2.80
2023-05-06T10:15:17.971Z,2.40
2023-05-06T10:16:17.995Z,2.90
2023-05-06T10:17:18.127Z,3.40
2023-05-06T10:18:17.983Z,2.50
2023-05-06T10:19:17.969Z,2.70
2023-05-06T10:20:17.934Z,2.50
2023-05-06T10:21:17.932Z,2.00
2023-05-06T10:22:17.921Z,1.90
2023-05-06T10:23:17.884Z,1.80
2023-05-06T10:24:18.022Z,2.00
2023-05-06T10:25:17.894Z,1.90
2023-05-06T10:26:17.874Z,1.90
2023-05-06T10:27:17.854Z,2.00
2023-05-06T10:28:27.484Z,1.90
2023-05-06T10:29:18.853Z,2.70
2023-05-06T10:30:17.816Z,2.80
2023-05-06T10:31:17.889Z,3.00
2023-05-06T10:32:17.810Z,4.10
2023-05-06T10:33:17.793Z,3.40
2023-05-06T10:34:17.791Z,3.80
2023-05-06T10:35:17.766Z,3.90
2023-05-06T10:36:17.794Z,3.40
2023-05-06T10:37:17.732Z,3.20
2023-05-06T10:38:17.742Z,3.50
2023-05-06T10:39:17.864Z,3.80
2023-05-06T10:40:17.733Z,3.60
2023-05-06T10:41:17.720Z,3.00
2023-05-06T10:42:17.702Z,2.80
2023-05-06T10:43:17.736Z,2.80
2023-05-06T10:44:17.664Z,2.80
2023-05-06T10:45:17.643Z,2.60
2023-05-06T10:46:17.814Z,2.80
2023-05-06T10:47:17.646Z,2.70
2023-05-06T10:48:17.658Z,2.50
2023-05-06T10:49:17.608Z,2.30
2023-05-06T10:50:17.635Z,2.30
2023-05-06T10:51:17.596Z,2.60
2023-05-06T10:52:17.579Z,2.20
2023-05-06T10:53:17.598Z,2.00
2023-05-06T10:54:17.541Z,3.10
2023-05-06T10:55:17.540Z,2.90
2023-05-06T10:56:17.523Z,3.00
2023-05-06T10:57:17.665Z,3.10
2023-05-06T10:58:17.586Z,3.30
2023-05-06T10:59:17.510Z,4.00
2023-05-06T11:00:17.490Z,4.00
2023-05-06T11:01:17.562Z,3.90
2023-05-06T11:02:17.541Z,4.80
2023-05-06T11:03:17.583Z,4.20
2023-05-06T11:04:17.432Z,4.70
2023-05-06T11:05:17.435Z,4.60
2023-05-06T11:06:17.433Z,6.40
2023-05-06T11:07:17.428Z,4.30
2023-05-06T11:08:17.420Z,4.20
2023-05-06T11:09:17.441Z,3.90
2023-05-06T11:10:17.377Z,4.10
2023-05-06T11:11:17.377Z,3.70
2023-05-06T11:12:17.445Z,3.80
2023-05-06T11:13:17.419Z,3.60
2023-05-06T11:14:17.328Z,3.50
2023-05-06T11:15:17.363Z,3.60
2023-05-06T11:16:17.395Z,4.00
2023-05-06T11:17:17.326Z,3.20
2023-05-06T11:18:17.295Z,3.20
2023-05-06T11:19:17.399Z,3.10
2023-05-06T11:20:17.304Z,3.40
2023-05-06T11:21:17.273Z,3.20
2023-05-06T11:22:17.381Z,3.30
2023-05-06T11:23:17.316Z,3.50
2023-05-06T11:24:17.245Z,3.00
2023-05-06T11:25:17.216Z,2.90
2023-05-06T11:26:17.213Z,3.50
2023-05-06T11:27:17.195Z,3.10
2023-05-06T11:28:17.192Z,3.40
2023-05-06T11:29:17.197Z,2.80
2023-05-06T11:30:17.172Z,3.00
2023-05-06T11:31:17.236Z,2.60
2023-05-06T11:32:17.266Z,3.00
2023-05-06T11:33:17.143Z,2.50
2023-05-06T11:34:17.151Z,2.40
2023-05-06T11:35:17.140Z,2.90
2023-05-06T11:36:17.194Z,2.50
2023-05-06T11:37:17.109Z,2.00
2023-05-06T11:38:17.092Z,2.20
2023-05-06T11:39:17.104Z,1.80
2023-05-06T11:40:17.079Z,2.20
2023-05-06T11:41:17.094Z,1.70
2023-05-06T11:42:17.093Z,2.00
2023-05-06T11:43:17.112Z,2.40
2023-05-06T11:44:17.037Z,2.10
2023-05-06T11:45:17.159Z,1.90
2023-05-06T11:46:17.029Z,1.80
2023-05-06T11:47:16.987Z,1.80
2023-05-06T11:48:16.996Z,2.20
2023-05-06T11:49:17.059Z,2.80
2023-05-06T11:50:16.957Z,2.80
2023-05-06T11:51:16.977Z,3.10
2023-05-06T11:52:16.938Z,3.20
2023-05-06T11:53:16.924Z,3.00
2023-05-06T11:54:16.986Z,3.30
2023-05-06T11:55:16.911Z,2.70
2023-05-06T11:56:16.920Z,3.50
2023-05-06T11:57:16.895Z,3.00
2023-05-06T11:58:16.881Z,3.70
2023-05-06T11:59:25.638Z,3.60
2023-05-06T12:00:16.849Z,4.10
2023-05-06T12:01:16.842Z,3.50
2023-05-06T12:02:16.878Z,2.90
2023-05-06T12:03:17.008Z,3.60
2023-05-06T12:04:16.855Z,3.90
2023-05-06T12:05:16.803Z,3.80
2023-05-06T12:06:16.786Z,3.90
2023-05-06T12:07:16.808Z,3.50
2023-05-06T12:08:26.711Z,3.70
2023-05-06T12:09:17.780Z,3.10
2023-05-06T12:10:16.821Z,3.50
2023-05-06T12:11:16.733Z,4.00
2023-05-06T12:12:16.753Z,3.90
2023-05-06T12:13:16.835Z,3.90
2023-05-06T12:14:16.761Z,3.70
2023-05-06T12:15:16.725Z,3.40
2023-05-06T12:16:16.699Z,3.50
2023-05-06T12:17:16.731Z,3.60
2023-05-06T12:18:16.677Z,3.60
2023-05-06T12:19:16.660Z,3.40
2023-05-06T12:20:16.663Z,3.60
2023-05-06T12:21:16.919Z,3.60
2023-05-06T12:22:16.711Z,3.70
2023-05-06T12:23:16.673Z,3.10
2023-05-06T12:24:16.643Z,3.10
2023-05-06T12:25:16.670Z,2.90
2023-05-06T12:26:16.575Z,4.60
2023-05-06T12:27:16.572Z,2.90
2023-05-06T12:28:16.578Z,4.40
2023-05-06T12:29:16.572Z,2.80
2023-05-06T12:30:16.564Z,3.70
2023-05-06T12:31:16.589Z,2.40
2023-05-06T12:32:16.752Z,2.30
2023-05-06T12:33:16.517Z,2.30
2023-05-06T12:34:16.508Z,2.40
2023-05-06T12:35:16.484Z,2.00
2023-05-06T12:36:16.516Z,2.10
2023-05-06T12:37:16.500Z,2.00
2023-05-06T12:38:16.451Z,2.40
2023-05-06T12:39:16.440Z,2.20
2023-05-06T12:40:16.438Z,1.80
2023-05-06T12:41:16.442Z,3.20
2023-05-06T12:42:16.553Z,1.60
2023-05-06T12:43:16.398Z,1.40
2023-05-06T12:44:16.510Z,1.80
2023-05-06T12:45:16.381Z,1.60
2023-05-06T12:46:16.477Z,1.70
2023-05-06T12:47:16.337Z,1.80
2023-05-06T12:48:16.359Z,2.20
2023-05-06T12:49:16.331Z,1.60
2023-05-06T12:50:16.359Z,1.80
2023-05-06T12:51:16.355Z,1.10
2023-05-06T12:52:16.435Z,2.40
2023-05-06T12:53:16.317Z,1.50
2023-05-06T12:54:16.271Z,1.80
2023-05-06T12:55:16.307Z,1.60
2023-05-06T12:56:16.288Z,1.60
2023-05-06T12:57:16.339Z,1.70
2023-05-06T12:58:16.235Z,1.40
2023-05-06T12:59:16.231Z,1.20
2023-05-06T13:00:16.279Z,0.90
2023-05-06T13:01:16.274Z,1.50
2023-05-06T13:02:16.370Z,2.10
2023-05-06T13:03:16.295Z,1.10
2023-05-06T13:04:16.203Z,2.40
2023-05-06T13:05:16.190Z,1.40
2023-05-06T13:06:16.215Z,1.00
2023-05-06T13:07:16.137Z,0.80
2023-05-06T13:08:16.130Z,1.50